Dundee, United Kingdom

11:15 PM BST on August 29, 2016 (GMT +0100)
Botanic Gardens | | Change Station

Elev 95 ft 56.46 °N, 3.02 °W | Updated 10 minutes ago

Mostly Cloudy
Mostly Cloudy
60.8 °F
Feels Like 60.8 °F
N
5.0
Wind Variable Wind from WNW
Gusts 10.0 mph

Today
High -- | Low -- °F
--% Chance of Precip.
Yesterday
High -- | Low -- °F
Precip. -- in
Pressure 30.04 in
Visibility 6.2 miles
Clouds Few 3200 ft
Mostly Cloudy 23000 ft
Dew Point 56 °F
Humidity 84%
Rainfall 0.05 in
Snow Depth Not available.
6:10 AM 8:14 PM
Waning Crescent, 6% visible
METAR EGQL 292150Z 25014KT 9999 FEW032 BKN230 16/13 Q1017 BLU
Pressure 30.04 in
Visibility 6.2 miles
Clouds Few 3200 ft
Mostly Cloudy 23000 ft
Dew Point 56 °F
Humidity 84%
Rainfall 0.05 in
Snow Depth Not available.
6:10 AM 8:14 PM
Waning Crescent, 6% visible
METAR EGQL 292150Z 25014KT 9999 FEW032 BKN230 16/13 Q1017 BLU

10-Day Weather Forecast

×

Almanac

Astronomy

Aug. 29, 2016 Rise Set
Actual Time
Civil Twilight
Nautical Twilight
Astronomical Twilight
Moon
Length of Visible Light
Length of Day
Tomorrow will be .
, % of the Moon is Illuminated

Today's Extremes

Country Highs Country Lows

Community

WunderPhotos

Upload Photos

1,935,691 photos uploaded!

WunderBlog® & News

Nearby

Air Quality

  Air Quality AQ Index Pollutant
Not available.

Snow Depth

Station Depth Elevation

Earthquake Activity

City Distance Mag. Time & Date
Minimum magnitude displayed is 2.5.

Coastal Water Temperatures

Place Temperature

Stations

Nearby Weather Stations

Station Location Temp. Windchill Dew Point Humidity Wind Precip. Elev Updated Type